createdAt,value
2018-11-23T00:00:29.402Z,10.00
2018-11-23T00:02:57.709Z,12.20
2018-11-23T00:05:25.460Z,14.93
2018-11-23T00:07:53.677Z,11.07
2018-11-23T00:10:22.665Z,12.13
2018-11-23T00:12:50.449Z,11.70
2018-11-23T00:15:19.426Z,13.37
2018-11-23T00:17:47.198Z,13.20
2018-11-23T00:20:16.193Z,12.30
2018-11-23T00:22:43.847Z,8.80
2018-11-23T00:25:14.612Z,9.10
2018-11-23T00:27:42.539Z,19.80
2018-11-23T00:30:20.036Z,9.80
2018-11-23T00:32:48.347Z,11.73
2018-11-23T00:35:17.834Z,10.40
2018-11-23T00:37:45.954Z,8.60
2018-11-23T00:40:18.415Z,8.90
2018-11-23T00:42:46.074Z,9.77
2018-11-23T00:45:13.742Z,8.97
2018-11-23T00:47:42.199Z,11.10
2018-11-23T00:50:11.869Z,9.00
2018-11-23T00:52:40.802Z,11.20
2018-11-23T00:55:09.950Z,11.97
2018-11-23T00:57:38.073Z,10.43
2018-11-23T01:00:11.080Z,10.37
2018-11-23T01:02:38.717Z,8.40
2018-11-23T01:05:06.450Z,10.63
2018-11-23T01:07:34.322Z,16.77
2018-11-23T01:10:02.109Z,20.13
2018-11-23T01:12:29.753Z,9.63
2018-11-23T01:14:57.407Z,11.40
2018-11-23T01:17:25.055Z,13.60
2018-11-23T01:19:52.665Z,10.60
2018-11-23T01:22:20.474Z,11.00
2018-11-23T01:24:48.086Z,8.67
2018-11-23T01:27:15.707Z,10.20
2018-11-23T01:29:43.435Z,9.03
2018-11-23T01:32:11.195Z,8.67
2018-11-23T01:34:38.811Z,9.30
2018-11-23T01:37:06.474Z,8.40
2018-11-23T01:39:34.128Z,11.93
2018-11-23T01:42:01.711Z,8.27
2018-11-23T01:44:29.437Z,9.53
2018-11-23T01:46:57.251Z,9.50
2018-11-23T01:49:24.895Z,12.47
2018-11-23T01:51:52.495Z,9.20
2018-11-23T01:54:20.174Z,7.57
2018-11-23T01:56:47.787Z,8.47
2018-11-23T01:59:15.442Z,9.20
2018-11-23T02:01:43.146Z,10.40
2018-11-23T02:04:10.806Z,10.30
2018-11-23T02:06:38.426Z,12.70
2018-11-23T02:09:07.165Z,10.00
2018-11-23T02:11:34.783Z,9.27
2018-11-23T02:14:02.541Z,10.30
2018-11-23T02:16:30.181Z,8.63
2018-11-23T02:18:57.779Z,8.80
2018-11-23T02:21:25.471Z,8.03
2018-11-23T02:23:53.139Z,8.70
2018-11-23T02:26:20.903Z,9.30
2018-11-23T02:28:48.710Z,8.33
2018-11-23T02:31:16.433Z,8.77
2018-11-23T02:33:44.070Z,8.90
2018-11-23T02:36:11.763Z,7.97
2018-11-23T02:38:39.397Z,9.03
2018-11-23T02:41:07.009Z,9.00
2018-11-23T02:43:34.706Z,8.00
2018-11-23T02:46:02.348Z,8.50
2018-11-23T02:48:30.042Z,10.77
2018-11-23T02:50:57.729Z,10.13
2018-11-23T02:53:25.375Z,10.50
2018-11-23T02:55:53.056Z,7.97
2018-11-23T02:58:20.734Z,8.90
2018-11-23T03:00:48.342Z,7.50
2018-11-23T03:03:15.976Z,9.70
2018-11-23T03:05:43.624Z,10.00
2018-11-23T03:08:11.264Z,9.77
2018-11-23T03:10:38.906Z,8.60
2018-11-23T03:13:06.570Z,8.50
2018-11-23T03:15:34.370Z,10.60
2018-11-23T03:18:02.028Z,10.20
2018-11-23T03:20:29.648Z,8.57
2018-11-23T03:22:57.432Z,8.83
2018-11-23T03:25:25.014Z,7.50
2018-11-23T03:27:52.670Z,8.17
2018-11-23T03:30:21.607Z,8.10
2018-11-23T03:32:49.938Z,8.60
2018-11-23T03:35:18.161Z,9.47
2018-11-23T03:37:45.945Z,7.50
2018-11-23T03:40:13.613Z,8.63
2018-11-23T03:42:41.387Z,9.60
2018-11-23T03:45:10.461Z,7.60
2018-11-23T03:47:38.087Z,7.93
2018-11-23T03:50:06.833Z,7.93
2018-11-23T03:52:34.447Z,13.17
2018-11-23T03:55:02.142Z,8.40
2018-11-23T03:57:29.825Z,10.43
2018-11-23T03:59:57.512Z,8.00
2018-11-23T04:02:25.561Z,8.00
2018-11-23T04:04:53.264Z,9.80
2018-11-23T04:07:20.941Z,9.53
2018-11-23T04:09:48.553Z,8.87
2018-11-23T04:12:16.218Z,8.37
2018-11-23T04:14:43.842Z,9.67
2018-11-23T04:17:11.505Z,10.60
2018-11-23T04:19:39.171Z,8.67
2018-11-23T04:22:06.803Z,8.97
2018-11-23T04:24:34.454Z,9.47
2018-11-23T04:27:02.021Z,9.37
2018-11-23T04:29:29.909Z,9.60
2018-11-23T04:31:57.781Z,6.90
2018-11-23T04:34:26.224Z,8.30
2018-11-23T04:36:53.977Z,8.17
2018-11-23T04:39:21.560Z,8.13
2018-11-23T04:41:49.205Z,8.63
2018-11-23T04:44:16.883Z,8.90
2018-11-23T04:46:44.492Z,11.37
2018-11-23T04:49:12.163Z,6.90
2018-11-23T04:51:39.814Z,6.40
2018-11-23T04:54:07.463Z,6.70
2018-11-23T04:56:35.101Z,8.90
2018-11-23T04:59:02.732Z,12.80
2018-11-23T05:01:30.364Z,7.80
2018-11-23T05:03:58.019Z,7.17
2018-11-23T05:06:25.678Z,8.77
2018-11-23T05:08:53.536Z,11.77
2018-11-23T05:11:21.817Z,11.10
2018-11-23T05:13:49.442Z,12.60
2018-11-23T05:16:17.083Z,9.53
2018-11-23T05:18:44.728Z,8.43
2018-11-23T05:21:12.334Z,8.23
2018-11-23T05:23:39.996Z,8.87
2018-11-23T05:26:07.650Z,8.70
2018-11-23T05:28:35.277Z,7.87
2018-11-23T05:31:02.898Z,10.37
2018-11-23T05:33:30.583Z,14.00
2018-11-23T05:35:58.251Z,8.30
2018-11-23T05:38:25.938Z,11.40
2018-11-23T05:40:53.712Z,17.63
2018-11-23T05:43:21.484Z,10.03
2018-11-23T05:45:49.082Z,7.13
2018-11-23T05:48:16.742Z,10.70
2018-11-23T05:50:44.354Z,11.80
2018-11-23T05:53:12.043Z,9.17
2018-11-23T05:55:39.702Z,10.13
2018-11-23T05:58:07.397Z,16.63
2018-11-23T06:00:35.121Z,15.00
2018-11-23T06:03:02.796Z,12.43
2018-11-23T06:05:30.444Z,9.77
2018-11-23T06:07:58.056Z,8.30
2018-11-23T06:10:25.707Z,10.53
2018-11-23T06:12:53.346Z,12.90
2018-11-23T06:15:22.375Z,10.27
2018-11-23T06:17:50.464Z,17.93
2018-11-23T06:20:21.953Z,23.57
2018-11-23T06:22:50.474Z,14.97
2018-11-23T06:25:28.633Z,15.93
2018-11-23T06:27:56.269Z,23.20
2018-11-23T06:30:23.882Z,35.80
2018-11-23T06:33:02.787Z,23.87
2018-11-23T06:35:30.422Z,59.33
2018-11-23T06:37:58.204Z,26.57
2018-11-23T06:40:25.848Z,36.00
2018-11-23T06:42:53.541Z,24.13
2018-11-23T06:45:21.389Z,21.13
2018-11-23T06:47:49.056Z,14.77
2018-11-23T06:50:16.753Z,20.07
2018-11-23T06:52:44.430Z,14.80
2018-11-23T06:55:12.416Z,18.90
2018-11-23T06:57:40.462Z,18.53
2018-11-23T07:00:11.415Z,16.07
2018-11-23T07:02:39.290Z,17.83
2018-11-23T07:05:07.794Z,23.13
2018-11-23T07:07:36.625Z,21.63
2018-11-23T07:10:04.741Z,14.60
2018-11-23T07:12:32.416Z,28.60
2018-11-23T07:15:00.215Z,19.50
2018-11-23T07:17:27.853Z,22.20
2018-11-23T07:19:56.311Z,19.63
2018-11-23T07:22:24.080Z,21.30
2018-11-23T07:24:54.779Z,29.53
2018-11-23T07:27:22.393Z,16.50
2018-11-23T07:29:50.082Z,17.03
2018-11-23T07:32:17.675Z,25.37
2018-11-23T07:34:45.332Z,35.73
2018-11-23T07:37:12.986Z,29.07
2018-11-23T07:39:51.820Z,27.40
2018-11-23T07:42:23.178Z,27.03
2018-11-23T07:44:50.801Z,27.10
2018-11-23T07:47:18.527Z,23.03
2018-11-23T07:49:46.661Z,20.70
2018-11-23T07:52:14.580Z,24.43
2018-11-23T07:54:42.412Z,29.03
2018-11-23T07:57:10.397Z,25.23
2018-11-23T07:59:38.248Z,15.50
2018-11-23T08:02:07.456Z,22.53
2018-11-23T08:04:35.215Z,19.60
2018-11-23T08:07:02.928Z,20.83
2018-11-23T08:09:30.611Z,22.53
2018-11-23T08:11:58.398Z,18.90
2018-11-23T08:14:26.021Z,24.73
2018-11-23T08:16:53.687Z,18.03
2018-11-23T08:19:21.360Z,15.70
2018-11-23T08:21:49.035Z,26.83
2018-11-23T08:24:16.723Z,24.13
2018-11-23T08:26:44.399Z,15.60
2018-11-23T08:29:12.207Z,23.20
2018-11-23T08:31:40.026Z,26.37
2018-11-23T08:34:07.816Z,16.33
2018-11-23T08:36:35.657Z,20.20
2018-11-23T08:39:04.946Z,16.27
2018-11-23T08:41:32.707Z,25.17
2018-11-23T08:44:00.369Z,16.47
2018-11-23T08:46:28.097Z,18.10
2018-11-23T08:48:55.797Z,18.90
2018-11-23T08:51:23.426Z,13.83
2018-11-23T08:53:51.078Z,12.90
2018-11-23T08:56:18.724Z,24.43
2018-11-23T08:58:46.337Z,19.23
2018-11-23T09:01:14.018Z,14.23
2018-11-23T09:03:41.687Z,16.83
2018-11-23T09:06:09.468Z,18.27
2018-11-23T09:08:37.131Z,19.70
2018-11-23T09:11:05.615Z,22.53
2018-11-23T09:13:33.300Z,16.13
2018-11-23T09:16:01.028Z,18.40
2018-11-23T09:18:28.735Z,14.00
2018-11-23T09:20:56.424Z,16.13
2018-11-23T09:23:24.415Z,17.30
2018-11-23T09:25:52.056Z,48.17
2018-11-23T09:28:19.793Z,19.17
2018-11-23T09:30:47.455Z,12.20
2018-11-23T09:33:15.111Z,15.40
2018-11-23T09:35:42.895Z,19.40
2018-11-23T09:38:10.599Z,13.27
2018-11-23T09:40:38.326Z,14.87
2018-11-23T09:43:06.035Z,12.10
2018-11-23T09:45:34.482Z,16.67
2018-11-23T09:48:03.350Z,11.07
2018-11-23T09:50:31.023Z,15.10
2018-11-23T09:53:00.295Z,15.00
2018-11-23T09:55:29.193Z,11.60
2018-11-23T09:57:56.929Z,14.97
2018-11-23T10:00:26.202Z,13.03
2018-11-23T10:02:54.789Z,13.33
2018-11-23T10:05:23.164Z,16.93
2018-11-23T10:07:53.452Z,11.77
2018-11-23T10:10:21.839Z,13.50
2018-11-23T10:12:49.588Z,13.17
2018-11-23T10:15:18.001Z,16.40
2018-11-23T10:17:45.697Z,10.47
2018-11-23T10:20:15.800Z,12.90
2018-11-23T10:22:43.706Z,12.97
2018-11-23T10:25:12.821Z,15.80
2018-11-23T10:27:41.127Z,14.67
2018-11-23T10:30:11.190Z,14.90
2018-11-23T10:32:38.839Z,16.07
2018-11-23T10:35:07.193Z,13.73
2018-11-23T10:37:34.912Z,15.13
2018-11-23T10:40:02.592Z,11.40
2018-11-23T10:42:30.307Z,12.17
2018-11-23T10:44:57.980Z,14.10
2018-11-23T10:47:25.677Z,16.33
2018-11-23T10:49:54.667Z,11.97
2018-11-23T10:52:22.324Z,11.30
2018-11-23T10:54:50.076Z,16.60
2018-11-23T10:57:17.759Z,10.87
2018-11-23T10:59:45.616Z,10.60
2018-11-23T11:02:18.833Z,11.70
2018-11-23T11:04:58.074Z,13.77
2018-11-23T11:07:25.751Z,14.00
2018-11-23T11:09:53.407Z,16.10
2018-11-23T11:12:21.118Z,16.57
2018-11-23T11:14:48.761Z,17.20
2018-11-23T11:17:16.446Z,13.07
2018-11-23T11:19:44.111Z,15.57
2018-11-23T11:22:11.791Z,20.13
2018-11-23T11:24:39.497Z,13.00
2018-11-23T11:27:07.193Z,14.23
2018-11-23T11:29:35.017Z,11.83
2018-11-23T11:32:02.659Z,15.30
2018-11-23T11:34:30.318Z,13.03
2018-11-23T11:36:57.989Z,15.20
2018-11-23T11:39:25.694Z,13.80
2018-11-23T11:41:53.358Z,12.10
2018-11-23T11:44:21.197Z,14.37
2018-11-23T11:46:48.863Z,16.77
2018-11-23T11:49:16.541Z,16.33
2018-11-23T11:51:44.151Z,16.43
2018-11-23T11:54:11.817Z,11.97
2018-11-23T11:56:39.541Z,16.67
2018-11-23T11:59:07.186Z,12.83
2018-11-23T12:01:34.890Z,15.67
2018-11-23T12:04:02.555Z,14.63
2018-11-23T12:06:30.274Z,17.83
2018-11-23T12:08:57.948Z,14.13
2018-11-23T12:11:25.563Z,13.53
2018-11-23T12:13:53.271Z,16.40
2018-11-23T12:16:20.916Z,13.10
2018-11-23T12:18:48.576Z,11.90
2018-11-23T12:21:16.248Z,13.50
2018-11-23T12:23:44.117Z,20.00
2018-11-23T12:26:11.824Z,13.43
2018-11-23T12:28:39.466Z,12.67
2018-11-23T12:31:07.133Z,12.30
2018-11-23T12:33:34.765Z,21.17
2018-11-23T12:36:02.415Z,15.40
2018-11-23T12:38:30.091Z,13.70
2018-11-23T12:40:57.797Z,13.17
2018-11-23T12:43:25.455Z,14.90
2018-11-23T12:45:53.049Z,14.10
2018-11-23T12:48:20.785Z,14.67
2018-11-23T12:50:48.436Z,13.07
2018-11-23T12:53:16.098Z,19.53
2018-11-23T12:55:43.788Z,16.37
2018-11-23T12:58:11.442Z,14.03
2018-11-23T13:00:39.105Z,16.73
2018-11-23T13:03:06.839Z,15.63
2018-11-23T13:05:35.181Z,18.93
2018-11-23T13:08:04.522Z,17.23
2018-11-23T13:10:32.224Z,17.47
2018-11-23T13:13:00.959Z,17.03
2018-11-23T13:15:28.622Z,15.90
2018-11-23T13:17:56.956Z,14.83
2018-11-23T13:20:24.605Z,17.20
2018-11-23T13:22:52.720Z,20.50
2018-11-23T13:25:22.056Z,20.33
2018-11-23T13:27:49.722Z,35.17
2018-11-23T13:30:26.346Z,19.73
2018-11-23T13:32:53.974Z,27.37
2018-11-23T13:35:21.656Z,24.00
2018-11-23T13:37:49.435Z,25.43
2018-11-23T13:40:19.337Z,24.23
2018-11-23T13:42:47.794Z,38.33
2018-11-23T13:45:16.897Z,33.20
2018-11-23T13:47:44.628Z,62.00
2018-11-23T13:50:13.809Z,48.57
2018-11-23T13:52:42.998Z,41.43
2018-11-23T13:55:10.796Z,41.63
2018-11-23T13:57:38.479Z,54.00
2018-11-23T14:00:14.289Z,47.90
2018-11-23T14:02:42.336Z,51.47
2018-11-23T14:05:12.151Z,56.07
2018-11-23T14:07:40.011Z,32.17
2018-11-23T14:10:11.063Z,47.10
2018-11-23T14:12:38.723Z,52.83
2018-11-23T14:15:10.944Z,39.00
2018-11-23T14:17:38.800Z,42.93
2018-11-23T14:20:09.348Z,34.57
2018-11-23T14:22:37.274Z,31.37
2018-11-23T14:25:05.326Z,34.00
2018-11-23T14:27:33.076Z,26.50
2018-11-23T14:30:00.737Z,34.07
2018-11-23T14:32:28.465Z,33.73
2018-11-23T14:34:56.124Z,32.83
2018-11-23T14:37:23.853Z,31.70
2018-11-23T14:39:51.556Z,27.97
2018-11-23T14:42:19.329Z,25.60
2018-11-23T14:44:46.993Z,23.03
2018-11-23T14:47:14.717Z,26.30
2018-11-23T14:49:42.398Z,25.03
2018-11-23T14:52:10.107Z,27.70
2018-11-23T14:54:42.663Z,23.53
2018-11-23T14:57:05.516Z,28.73
2018-11-23T14:59:33.269Z,31.83
2018-11-23T15:02:00.936Z,22.53
2018-11-23T15:04:28.646Z,21.63
2018-11-23T15:06:56.348Z,27.73
2018-11-23T15:09:24.014Z,22.63
2018-11-23T15:11:51.761Z,23.57
2018-11-23T15:14:19.408Z,29.07
2018-11-23T15:16:47.074Z,29.40
2018-11-23T15:19:14.728Z,26.10
2018-11-23T15:21:42.396Z,26.70
2018-11-23T15:24:10.128Z,25.83
2018-11-23T15:26:37.791Z,23.50
2018-11-23T15:29:05.751Z,23.60
2018-11-23T15:31:33.424Z,20.17
2018-11-23T15:36:35.391Z,20.90
2018-11-23T15:39:03.895Z,22.20
2018-11-23T15:41:31.539Z,25.13
2018-11-23T15:43:59.240Z,19.07
2018-11-23T15:46:26.944Z,34.07
2018-11-23T15:48:54.650Z,18.47
2018-11-23T15:51:22.317Z,21.60
2018-11-23T15:53:50.053Z,23.20
2018-11-23T15:56:17.728Z,19.63
2018-11-23T15:58:45.398Z,21.63
2018-11-23T16:01:13.061Z,20.93
2018-11-23T16:03:40.714Z,20.77
2018-11-23T16:06:08.442Z,21.10
2018-11-23T16:08:36.115Z,17.47
2018-11-23T16:11:03.778Z,17.87
2018-11-23T16:13:31.484Z,22.83
2018-11-23T16:15:59.179Z,20.73
2018-11-23T16:18:26.849Z,19.33
2018-11-23T16:20:54.555Z,21.43
2018-11-23T16:23:22.209Z,18.77
2018-11-23T16:25:50.988Z,17.63
2018-11-23T16:28:18.714Z,32.93
2018-11-23T16:30:47.801Z,18.40
2018-11-23T16:33:17.212Z,19.60
2018-11-23T16:35:44.969Z,19.40
2018-11-23T16:38:16.041Z,20.50
2018-11-23T16:40:45.852Z,15.93
2018-11-23T16:43:14.475Z,18.93
2018-11-23T16:45:43.572Z,21.53
2018-11-23T16:48:12.161Z,17.10
2018-11-23T16:50:39.876Z,20.43
2018-11-23T16:53:07.645Z,14.73
2018-11-23T16:55:35.309Z,19.20
2018-11-23T16:58:05.220Z,15.53
2018-11-23T17:00:34.183Z,18.20
2018-11-23T17:03:04.104Z,17.80
2018-11-23T17:05:33.369Z,17.40
2018-11-23T17:08:01.159Z,16.90
2018-11-23T17:10:28.845Z,20.77
2018-11-23T17:12:56.533Z,20.13
2018-11-23T17:15:25.606Z,19.80
2018-11-23T17:17:53.307Z,17.33
2018-11-23T17:20:22.371Z,17.20
2018-11-23T17:22:50.922Z,15.83
2018-11-23T17:25:19.772Z,18.37
2018-11-23T17:27:47.725Z,14.57
2018-11-23T17:30:18.979Z,17.80
2018-11-23T17:32:46.725Z,16.40
2018-11-23T17:35:14.405Z,14.73
2018-11-23T17:37:42.408Z,21.60
2018-11-23T17:40:12.586Z,17.97
2018-11-23T17:42:40.276Z,16.50
2018-11-23T17:45:13.705Z,15.97
2018-11-23T17:47:41.394Z,12.93
2018-11-23T17:50:14.121Z,13.20
2018-11-23T17:52:42.039Z,14.97
2018-11-23T17:55:11.259Z,13.47
2018-11-23T17:57:40.254Z,14.93
2018-11-23T18:00:13.642Z,15.60
2018-11-23T18:02:41.665Z,15.40
2018-11-23T18:05:10.654Z,15.53
2018-11-23T18:07:38.436Z,12.73
2018-11-23T18:10:08.798Z,13.23
2018-11-23T18:12:36.443Z,13.63
2018-11-23T18:15:04.883Z,16.57
2018-11-23T18:17:32.533Z,16.07
2018-11-23T18:20:00.153Z,13.17
2018-11-23T18:22:27.813Z,15.43
2018-11-23T18:24:55.453Z,15.70
2018-11-23T18:27:23.082Z,13.20
2018-11-23T18:29:50.712Z,10.70
2018-11-23T18:32:18.367Z,12.20
2018-11-23T18:34:45.977Z,13.93
2018-11-23T18:37:13.648Z,12.23
2018-11-23T18:39:41.460Z,12.47
2018-11-23T18:42:09.112Z,18.77
2018-11-23T18:44:36.753Z,11.13
2018-11-23T18:47:04.519Z,16.87
2018-11-23T18:49:32.183Z,11.73
2018-11-23T18:51:59.810Z,14.67
2018-11-23T18:54:27.470Z,13.97
2018-11-23T18:56:55.095Z,15.63
2018-11-23T18:59:22.724Z,13.23
2018-11-23T19:01:50.358Z,13.50
2018-11-23T19:04:17.995Z,15.17
2018-11-23T19:06:45.630Z,13.37
2018-11-23T19:09:13.290Z,12.60
2018-11-23T19:11:40.984Z,15.13
2018-11-23T19:14:08.668Z,10.47
2018-11-23T19:16:36.318Z,14.47
2018-11-23T19:19:04.100Z,11.27
2018-11-23T19:21:31.763Z,14.00
2018-11-23T19:23:59.373Z,12.70
2018-11-23T19:26:27.061Z,12.17
2018-11-23T19:28:54.708Z,12.90
2018-11-23T19:31:22.356Z,11.87
2018-11-23T19:33:49.981Z,11.83
2018-11-23T19:36:17.669Z,17.73
2018-11-23T19:38:45.255Z,13.27
2018-11-23T19:41:12.876Z,9.60
2018-11-23T19:43:40.532Z,13.63
2018-11-23T19:46:08.127Z,13.30
2018-11-23T19:48:35.827Z,12.70
2018-11-23T19:51:03.458Z,11.73
2018-11-23T19:53:31.121Z,13.40
2018-11-23T19:55:58.786Z,11.20
2018-11-23T19:58:26.443Z,14.63
2018-11-23T20:00:54.125Z,12.67
2018-11-23T20:03:21.805Z,10.73
2018-11-23T20:05:49.450Z,14.17
2018-11-23T20:08:17.072Z,13.20
2018-11-23T20:10:44.715Z,11.33
2018-11-23T20:13:12.319Z,11.13
2018-11-23T20:15:39.964Z,10.43
2018-11-23T20:18:07.584Z,14.67
2018-11-23T20:20:35.238Z,10.97
2018-11-23T20:23:02.848Z,14.57
2018-11-23T20:25:30.488Z,10.63
2018-11-23T20:27:58.426Z,10.53
2018-11-23T20:30:26.067Z,10.37
2018-11-23T20:32:53.771Z,14.13
2018-11-23T20:35:22.064Z,13.20
2018-11-23T20:37:49.705Z,11.63
2018-11-23T20:40:21.213Z,9.43
2018-11-23T20:42:48.826Z,11.47
2018-11-23T20:45:16.754Z,14.23
2018-11-23T20:47:44.394Z,10.40
2018-11-23T20:50:13.250Z,10.63
2018-11-23T20:52:40.896Z,11.20
2018-11-23T20:55:12.977Z,13.30
2018-11-23T20:57:40.630Z,10.30
2018-11-23T21:00:11.773Z,12.57
2018-11-23T21:02:39.512Z,9.63
2018-11-23T21:05:08.634Z,10.77
2018-11-23T21:07:36.675Z,9.53
2018-11-23T21:10:08.373Z,9.70
2018-11-23T21:12:35.970Z,10.87
2018-11-23T21:15:03.666Z,11.97
2018-11-23T21:17:31.318Z,10.23
2018-11-23T21:19:58.979Z,10.27
2018-11-23T21:22:26.612Z,9.30
2018-11-23T21:24:54.277Z,10.13
2018-11-23T21:27:21.958Z,10.40
2018-11-23T21:29:49.576Z,11.03
2018-11-23T21:32:17.237Z,8.80
2018-11-23T21:34:44.871Z,7.97
2018-11-23T21:37:12.481Z,10.23
2018-11-23T21:39:40.090Z,10.63
2018-11-23T21:42:07.754Z,11.57
2018-11-23T21:44:35.361Z,11.87
2018-11-23T21:47:02.932Z,11.80
2018-11-23T21:49:30.716Z,10.27
2018-11-23T21:51:58.368Z,9.73
2018-11-23T21:54:25.997Z,11.50
2018-11-23T21:56:53.637Z,10.90
2018-11-23T21:59:21.257Z,10.40
2018-11-23T22:01:48.930Z,8.10
2018-11-23T22:04:16.616Z,10.90
2018-11-23T22:06:44.230Z,8.73
2018-11-23T22:09:11.874Z,9.53
2018-11-23T22:11:39.537Z,11.40
2018-11-23T22:14:07.213Z,9.63
2018-11-23T22:16:34.886Z,11.37
2018-11-23T22:19:02.488Z,10.07
2018-11-23T22:21:30.160Z,9.80
2018-11-23T22:24:01.736Z,10.50
2018-11-23T22:26:25.465Z,9.40
2018-11-23T22:28:53.168Z,8.47
2018-11-23T22:31:20.760Z,12.77
2018-11-23T22:33:48.417Z,10.37
2018-11-23T22:36:16.085Z,9.10
2018-11-23T22:38:43.722Z,9.57
2018-11-23T22:41:11.362Z,8.53
2018-11-23T22:43:38.997Z,7.60
2018-11-23T22:46:06.597Z,10.20
2018-11-23T22:48:34.245Z,9.13
2018-11-23T22:51:01.946Z,9.30
2018-11-23T22:53:29.577Z,9.53
2018-11-23T22:55:57.248Z,9.27
2018-11-23T22:58:24.893Z,9.03
2018-11-23T23:00:57.137Z,8.30
2018-11-23T23:03:24.831Z,10.63
2018-11-23T23:05:52.549Z,9.37
2018-11-23T23:08:20.175Z,10.80
2018-11-23T23:10:47.831Z,14.93
2018-11-23T23:13:15.480Z,9.20
2018-11-23T23:15:43.259Z,9.20
2018-11-23T23:18:10.834Z,8.70
2018-11-23T23:20:38.480Z,7.40
2018-11-23T23:23:06.134Z,8.23
2018-11-23T23:25:33.779Z,6.93
2018-11-23T23:28:01.429Z,8.20
2018-11-23T23:30:29.079Z,7.40
2018-11-23T23:32:56.773Z,9.93
2018-11-23T23:35:24.396Z,11.07
2018-11-23T23:37:52.048Z,8.10
2018-11-23T23:40:19.840Z,8.13
2018-11-23T23:42:47.987Z,8.20
2018-11-23T23:45:16.569Z,9.20
2018-11-23T23:47:44.227Z,8.50
2018-11-23T23:50:21.069Z,9.30
2018-11-23T23:52:49.218Z,6.87
2018-11-23T23:55:16.866Z,10.57
2018-11-23T23:57:45.345Z,8.30
